sensor_id;sensor_type;location;lat;lon;timestamp;P1;durP1;ratioP1;P2;durP2;ratioP2
9661;SDS011;24982;52.344;12.990;2023-04-30T00:01:32;3.67;;;3.17;;
9661;SDS011;24982;52.344;12.990;2023-04-30T00:04:35;3.42;;;3.13;;
9661;SDS011;24982;52.344;12.990;2023-04-30T00:07:38;3.53;;;3.20;;
9661;SDS011;24982;52.344;12.990;2023-04-30T00:10:41;5.45;;;3.47;;
9661;SDS011;24982;52.344;12.990;2023-04-30T00:13:43;4.85;;;3.15;;
9661;SDS011;24982;52.344;12.990;2023-04-30T00:16:45;5.22;;;2.70;;
9661;SDS011;24982;52.344;12.990;2023-04-30T00:19:47;3.60;;;2.60;;
9661;SDS011;24982;52.344;12.990;2023-04-30T00:22:51;3.75;;;2.40;;
9661;SDS011;24982;52.344;12.990;2023-04-30T00:25:53;5.63;;;2.60;;
9661;SDS011;24982;52.344;12.990;2023-04-30T00:28:55;2.53;;;2.22;;
9661;SDS011;24982;52.344;12.990;2023-04-30T00:31:57;2.75;;;2.40;;
9661;SDS011;24982;52.344;12.990;2023-04-30T00:34:59;5.30;;;2.78;;
9661;SDS011;24982;52.344;12.990;2023-04-30T00:38:02;3.70;;;2.40;;
9661;SDS011;24982;52.344;12.990;2023-04-30T00:41:04;3.80;;;2.33;;
9661;SDS011;24982;52.344;12.990;2023-04-30T00:44:06;4.32;;;2.38;;
9661;SDS011;24982;52.344;12.990;2023-04-30T00:47:08;3.88;;;2.28;;
9661;SDS011;24982;52.344;12.990;2023-04-30T00:50:10;4.65;;;2.20;;
9661;SDS011;24982;52.344;12.990;2023-04-30T00:53:16;3.95;;;2.40;;
9661;SDS011;24982;52.344;12.990;2023-04-30T00:56:18;3.58;;;2.33;;
9661;SDS011;24982;52.344;12.990;2023-04-30T00:59:20;6.78;;;2.42;;
9661;SDS011;24982;52.344;12.990;2023-04-30T01:02:22;5.65;;;2.70;;
9661;SDS011;24982;52.344;12.990;2023-04-30T01:05:25;2.85;;;2.10;;
9661;SDS011;24982;52.344;12.990;2023-04-30T01:08:28;4.25;;;2.33;;
9661;SDS011;24982;52.344;12.990;2023-04-30T01:11:34;5.13;;;2.45;;
9661;SDS011;24982;52.344;12.990;2023-04-30T01:14:49;4.18;;;2.22;;
9661;SDS011;24982;52.344;12.990;2023-04-30T01:17:58;5.40;;;2.50;;
9661;SDS011;24982;52.344;12.990;2023-04-30T01:21:06;2.90;;;2.20;;
9661;SDS011;24982;52.344;12.990;2023-04-30T01:24:23;7.15;;;2.47;;
9661;SDS011;24982;52.344;12.990;2023-04-30T01:27:52;3.70;;;2.20;;
9661;SDS011;24982;52.344;12.990;2023-04-30T01:31:10;5.10;;;2.25;;
9661;SDS011;24982;52.344;12.990;2023-04-30T01:34:13;5.50;;;2.78;;
9661;SDS011;24982;52.344;12.990;2023-04-30T01:37:16;4.85;;;2.90;;
9661;SDS011;24982;52.344;12.990;2023-04-30T01:40:22;5.05;;;2.72;;
9661;SDS011;24982;52.344;12.990;2023-04-30T01:43:32;3.08;;;2.78;;
9661;SDS011;24982;52.344;12.990;2023-04-30T01:46:40;5.88;;;2.97;;
9661;SDS011;24982;52.344;12.990;2023-04-30T01:49:49;7.10;;;2.83;;
9661;SDS011;24982;52.344;12.990;2023-04-30T01:52:58;3.10;;;2.67;;
9661;SDS011;24982;52.344;12.990;2023-04-30T01:56:01;4.45;;;2.67;;
9661;SDS011;24982;52.344;12.990;2023-04-30T01:59:08;3.92;;;2.70;;
9661;SDS011;24982;52.344;12.990;2023-04-30T02:02:11;5.50;;;2.80;;
9661;SDS011;24982;52.344;12.990;2023-04-30T02:05:13;3.92;;;2.63;;
9661;SDS011;24982;52.344;12.990;2023-04-30T02:08:15;2.90;;;2.60;;
9661;SDS011;24982;52.344;12.990;2023-04-30T02:11:17;5.05;;;2.72;;
9661;SDS011;24982;52.344;12.990;2023-04-30T02:14:20;4.05;;;2.67;;
9661;SDS011;24982;52.344;12.990;2023-04-30T02:17:26;5.40;;;2.88;;
9661;SDS011;24982;52.344;12.990;2023-04-30T02:20:28;3.80;;;2.70;;
9661;SDS011;24982;52.344;12.990;2023-04-30T02:23:30;6.88;;;2.67;;
9661;SDS011;24982;52.344;12.990;2023-04-30T02:26:32;6.25;;;2.80;;
9661;SDS011;24982;52.344;12.990;2023-04-30T02:29:35;7.43;;;2.78;;
9661;SDS011;24982;52.344;12.990;2023-04-30T02:32:37;3.08;;;2.78;;
9661;SDS011;24982;52.344;12.990;2023-04-30T02:35:39;3.85;;;2.50;;
9661;SDS011;24982;52.344;12.990;2023-04-30T02:38:42;5.50;;;2.80;;
9661;SDS011;24982;52.344;12.990;2023-04-30T02:41:43;4.95;;;2.50;;
9661;SDS011;24982;52.344;12.990;2023-04-30T02:44:47;4.57;;;2.92;;
9661;SDS011;24982;52.344;12.990;2023-04-30T02:47:49;4.90;;;3.00;;
9661;SDS011;24982;52.344;12.990;2023-04-30T02:50:51;6.07;;;3.10;;
9661;SDS011;24982;52.344;12.990;2023-04-30T02:53:53;5.43;;;2.50;;
9661;SDS011;24982;52.344;12.990;2023-04-30T02:56:55;5.38;;;2.70;;
9661;SDS011;24982;52.344;12.990;2023-04-30T02:59:58;7.40;;;2.70;;
9661;SDS011;24982;52.344;12.990;2023-04-30T03:03:00;5.10;;;2.35;;
9661;SDS011;24982;52.344;12.990;2023-04-30T03:06:03;5.70;;;3.15;;
9661;SDS011;24982;52.344;12.990;2023-04-30T03:09:05;8.00;;;2.85;;
9661;SDS011;24982;52.344;12.990;2023-04-30T03:12:07;6.85;;;2.58;;
9661;SDS011;24982;52.344;12.990;2023-04-30T03:15:10;7.55;;;2.80;;
9661;SDS011;24982;52.344;12.990;2023-04-30T03:18:12;7.10;;;2.63;;
9661;SDS011;24982;52.344;12.990;2023-04-30T03:21:14;5.20;;;2.40;;
9661;SDS011;24982;52.344;12.990;2023-04-30T03:24:16;7.38;;;2.40;;
9661;SDS011;24982;52.344;12.990;2023-04-30T03:27:19;3.25;;;2.28;;
9661;SDS011;24982;52.344;12.990;2023-04-30T03:30:22;4.75;;;2.60;;
9661;SDS011;24982;52.344;12.990;2023-04-30T03:33:24;8.60;;;2.58;;
9661;SDS011;24982;52.344;12.990;2023-04-30T03:36:26;4.05;;;2.22;;
9661;SDS011;24982;52.344;12.990;2023-04-30T03:39:28;4.18;;;2.25;;
9661;SDS011;24982;52.344;12.990;2023-04-30T03:42:30;8.10;;;2.45;;
9661;SDS011;24982;52.344;12.990;2023-04-30T03:45:34;8.32;;;2.83;;
9661;SDS011;24982;52.344;12.990;2023-04-30T03:48:36;5.50;;;2.40;;
9661;SDS011;24982;52.344;12.990;2023-04-30T03:51:38;5.63;;;2.47;;
9661;SDS011;24982;52.344;12.990;2023-04-30T03:54:41;5.22;;;2.60;;
9661;SDS011;24982;52.344;12.990;2023-04-30T03:57:44;6.53;;;2.40;;
9661;SDS011;24982;52.344;12.990;2023-04-30T04:00:47;4.60;;;2.40;;
9661;SDS011;24982;52.344;12.990;2023-04-30T04:03:49;6.25;;;2.70;;
9661;SDS011;24982;52.344;12.990;2023-04-30T04:06:51;10.70;;;2.67;;
9661;SDS011;24982;52.344;12.990;2023-04-30T04:09:54;6.28;;;2.83;;
9661;SDS011;24982;52.344;12.990;2023-04-30T04:12:56;5.88;;;2.45;;
9661;SDS011;24982;52.344;12.990;2023-04-30T04:16:01;4.57;;;2.20;;
9661;SDS011;24982;52.344;12.990;2023-04-30T04:19:03;10.55;;;2.40;;
9661;SDS011;24982;52.344;12.990;2023-04-30T04:22:06;10.82;;;2.45;;
9661;SDS011;24982;52.344;12.990;2023-04-30T04:25:08;6.80;;;2.60;;
9661;SDS011;24982;52.344;12.990;2023-04-30T04:28:11;6.88;;;3.00;;
9661;SDS011;24982;52.344;12.990;2023-04-30T04:31:15;7.80;;;2.50;;
9661;SDS011;24982;52.344;12.990;2023-04-30T04:34:17;5.28;;;2.47;;
9661;SDS011;24982;52.344;12.990;2023-04-30T04:37:20;6.22;;;2.72;;
9661;SDS011;24982;52.344;12.990;2023-04-30T04:40:22;7.55;;;2.70;;
9661;SDS011;24982;52.344;12.990;2023-04-30T04:43:24;5.75;;;2.85;;
9661;SDS011;24982;52.344;12.990;2023-04-30T04:46:28;7.13;;;2.45;;
9661;SDS011;24982;52.344;12.990;2023-04-30T04:49:31;4.82;;;2.72;;
9661;SDS011;24982;52.344;12.990;2023-04-30T04:52:33;6.50;;;2.97;;
9661;SDS011;24982;52.344;12.990;2023-04-30T04:55:35;5.30;;;2.55;;
9661;SDS011;24982;52.344;12.990;2023-04-30T04:58:37;5.45;;;2.60;;
9661;SDS011;24982;52.344;12.990;2023-04-30T05:01:41;6.85;;;3.20;;
9661;SDS011;24982;52.344;12.990;2023-04-30T05:04:44;12.85;;;2.90;;
9661;SDS011;24982;52.344;12.990;2023-04-30T05:07:49;8.25;;;2.90;;
9661;SDS011;24982;52.344;12.990;2023-04-30T05:10:54;5.45;;;2.92;;
9661;SDS011;24982;52.344;12.990;2023-04-30T05:13:56;8.23;;;2.72;;
9661;SDS011;24982;52.344;12.990;2023-04-30T05:16:59;10.43;;;3.20;;
9661;SDS011;24982;52.344;12.990;2023-04-30T05:20:01;7.32;;;2.88;;
9661;SDS011;24982;52.344;12.990;2023-04-30T05:23:06;8.55;;;3.10;;
9661;SDS011;24982;52.344;12.990;2023-04-30T05:26:08;6.72;;;3.00;;
9661;SDS011;24982;52.344;12.990;2023-04-30T05:29:10;8.73;;;2.90;;
9661;SDS011;24982;52.344;12.990;2023-04-30T05:32:14;10.15;;;3.05;;
9661;SDS011;24982;52.344;12.990;2023-04-30T05:35:16;8.27;;;2.97;;
9661;SDS011;24982;52.344;12.990;2023-04-30T05:38:18;8.43;;;3.13;;
9661;SDS011;24982;52.344;12.990;2023-04-30T05:41:20;6.18;;;2.85;;
9661;SDS011;24982;52.344;12.990;2023-04-30T05:44:22;10.02;;;3.60;;
9661;SDS011;24982;52.344;12.990;2023-04-30T05:47:26;8.23;;;2.78;;
9661;SDS011;24982;52.344;12.990;2023-04-30T05:50:28;5.45;;;2.63;;
9661;SDS011;24982;52.344;12.990;2023-04-30T05:53:30;7.72;;;2.75;;
9661;SDS011;24982;52.344;12.990;2023-04-30T05:56:32;8.98;;;3.10;;
9661;SDS011;24982;52.344;12.990;2023-04-30T05:59:34;5.60;;;3.00;;
9661;SDS011;24982;52.344;12.990;2023-04-30T06:02:37;8.60;;;3.00;;
9661;SDS011;24982;52.344;12.990;2023-04-30T06:05:40;8.75;;;2.88;;
9661;SDS011;24982;52.344;12.990;2023-04-30T06:08:43;8.70;;;3.55;;
9661;SDS011;24982;52.344;12.990;2023-04-30T06:11:45;6.30;;;3.10;;
9661;SDS011;24982;52.344;12.990;2023-04-30T06:14:50;4.85;;;2.80;;
9661;SDS011;24982;52.344;12.990;2023-04-30T06:17:54;8.57;;;3.05;;
9661;SDS011;24982;52.344;12.990;2023-04-30T06:20:56;6.80;;;2.85;;
9661;SDS011;24982;52.344;12.990;2023-04-30T06:23:58;8.20;;;3.00;;
9661;SDS011;24982;52.344;12.990;2023-04-30T06:27:00;8.88;;;3.22;;
9661;SDS011;24982;52.344;12.990;2023-04-30T06:30:02;6.63;;;2.90;;
9661;SDS011;24982;52.344;12.990;2023-04-30T06:33:05;7.95;;;3.20;;
9661;SDS011;24982;52.344;12.990;2023-04-30T06:36:07;7.25;;;2.75;;
9661;SDS011;24982;52.344;12.990;2023-04-30T06:39:11;9.30;;;3.03;;
9661;SDS011;24982;52.344;12.990;2023-04-30T06:42:14;7.60;;;3.15;;
9661;SDS011;24982;52.344;12.990;2023-04-30T06:45:16;6.43;;;3.20;;
9661;SDS011;24982;52.344;12.990;2023-04-30T06:48:20;8.15;;;3.08;;
9661;SDS011;24982;52.344;12.990;2023-04-30T06:51:22;8.23;;;3.65;;
9661;SDS011;24982;52.344;12.990;2023-04-30T06:54:24;9.68;;;3.35;;
9661;SDS011;24982;52.344;12.990;2023-04-30T06:57:26;9.30;;;3.20;;
9661;SDS011;24982;52.344;12.990;2023-04-30T07:00:29;7.03;;;2.67;;
9661;SDS011;24982;52.344;12.990;2023-04-30T07:03:32;6.50;;;3.28;;
9661;SDS011;24982;52.344;12.990;2023-04-30T07:06:35;6.85;;;2.88;;
9661;SDS011;24982;52.344;12.990;2023-04-30T07:09:37;10.45;;;3.50;;
9661;SDS011;24982;52.344;12.990;2023-04-30T07:12:39;9.27;;;3.05;;
9661;SDS011;24982;52.344;12.990;2023-04-30T07:15:41;8.43;;;2.83;;
9661;SDS011;24982;52.344;12.990;2023-04-30T07:18:44;6.90;;;2.97;;
9661;SDS011;24982;52.344;12.990;2023-04-30T07:21:48;5.43;;;3.03;;
9661;SDS011;24982;52.344;12.990;2023-04-30T07:24:49;5.07;;;2.60;;
9661;SDS011;24982;52.344;12.990;2023-04-30T07:27:51;8.07;;;3.40;;
9661;SDS011;24982;52.344;12.990;2023-04-30T07:30:53;9.65;;;3.30;;
9661;SDS011;24982;52.344;12.990;2023-04-30T07:33:57;9.90;;;3.60;;
9661;SDS011;24982;52.344;12.990;2023-04-30T07:36:59;9.65;;;3.35;;
9661;SDS011;24982;52.344;12.990;2023-04-30T07:40:02;6.03;;;3.42;;
9661;SDS011;24982;52.344;12.990;2023-04-30T07:43:04;7.22;;;3.08;;
9661;SDS011;24982;52.344;12.990;2023-04-30T07:46:06;9.02;;;3.50;;
9661;SDS011;24982;52.344;12.990;2023-04-30T07:49:10;7.47;;;3.25;;
9661;SDS011;24982;52.344;12.990;2023-04-30T07:52:12;6.20;;;3.30;;
9661;SDS011;24982;52.344;12.990;2023-04-30T07:55:14;7.05;;;3.92;;
9661;SDS011;24982;52.344;12.990;2023-04-30T07:58:16;10.82;;;3.72;;
9661;SDS011;24982;52.344;12.990;2023-04-30T08:01:18;7.82;;;2.95;;
9661;SDS011;24982;52.344;12.990;2023-04-30T08:04:21;6.80;;;3.20;;
9661;SDS011;24982;52.344;12.990;2023-04-30T08:07:23;6.50;;;2.85;;
9661;SDS011;24982;52.344;12.990;2023-04-30T08:10:25;9.27;;;3.28;;
9661;SDS011;24982;52.344;12.990;2023-04-30T08:13:27;7.15;;;3.35;;
9661;SDS011;24982;52.344;12.990;2023-04-30T08:16:29;8.27;;;3.20;;
9661;SDS011;24982;52.344;12.990;2023-04-30T08:19:33;7.88;;;3.22;;
9661;SDS011;24982;52.344;12.990;2023-04-30T08:22:35;8.13;;;3.03;;
9661;SDS011;24982;52.344;12.990;2023-04-30T08:25:37;8.13;;;2.92;;
9661;SDS011;24982;52.344;12.990;2023-04-30T08:28:39;6.72;;;2.97;;
9661;SDS011;24982;52.344;12.990;2023-04-30T08:31:41;5.95;;;2.50;;
9661;SDS011;24982;52.344;12.990;2023-04-30T08:34:44;7.03;;;3.05;;
9661;SDS011;24982;52.344;12.990;2023-04-30T08:37:46;8.95;;;3.15;;
9661;SDS011;24982;52.344;12.990;2023-04-30T08:40:51;5.53;;;2.90;;
9661;SDS011;24982;52.344;12.990;2023-04-30T08:44:03;5.90;;;2.80;;
9661;SDS011;24982;52.344;12.990;2023-04-30T08:47:05;7.55;;;2.60;;
9661;SDS011;24982;52.344;12.990;2023-04-30T08:50:10;4.63;;;2.17;;
9661;SDS011;24982;52.344;12.990;2023-04-30T08:53:12;5.63;;;2.88;;
9661;SDS011;24982;52.344;12.990;2023-04-30T08:56:16;10.50;;;2.72;;
9661;SDS011;24982;52.344;12.990;2023-04-30T08:59:18;6.30;;;2.63;;
9661;SDS011;24982;52.344;12.990;2023-04-30T09:02:20;4.38;;;2.28;;
9661;SDS011;24982;52.344;12.990;2023-04-30T09:05:23;5.43;;;2.70;;
9661;SDS011;24982;52.344;12.990;2023-04-30T09:08:41;5.50;;;2.83;;
9661;SDS011;24982;52.344;12.990;2023-04-30T09:11:46;7.15;;;2.75;;
9661;SDS011;24982;52.344;12.990;2023-04-30T09:14:57;5.50;;;2.40;;
9661;SDS011;24982;52.344;12.990;2023-04-30T09:18:04;3.55;;;2.58;;
9661;SDS011;24982;52.344;12.990;2023-04-30T09:21:09;7.38;;;2.90;;
9661;SDS011;24982;52.344;12.990;2023-04-30T09:24:11;5.32;;;2.60;;
9661;SDS011;24982;52.344;12.990;2023-04-30T09:27:14;5.32;;;2.85;;
9661;SDS011;24982;52.344;12.990;2023-04-30T09:30:28;6.38;;;2.72;;
9661;SDS011;24982;52.344;12.990;2023-04-30T09:33:35;4.57;;;2.35;;
9661;SDS011;24982;52.344;12.990;2023-04-30T09:36:54;4.45;;;2.63;;
9661;SDS011;24982;52.344;12.990;2023-04-30T09:39:56;8.10;;;2.38;;
9661;SDS011;24982;52.344;12.990;2023-04-30T09:42:58;8.02;;;2.60;;
9661;SDS011;24982;52.344;12.990;2023-04-30T09:46:02;3.53;;;2.20;;
9661;SDS011;24982;52.344;12.990;2023-04-30T09:49:04;5.80;;;2.33;;
9661;SDS011;24982;52.344;12.990;2023-04-30T09:52:08;7.15;;;2.50;;
9661;SDS011;24982;52.344;12.990;2023-04-30T09:55:11;4.15;;;2.42;;
9661;SDS011;24982;52.344;12.990;2023-04-30T09:58:14;4.82;;;2.38;;
9661;SDS011;24982;52.344;12.990;2023-04-30T10:01:16;5.95;;;2.33;;
9661;SDS011;24982;52.344;12.990;2023-04-30T10:04:19;4.57;;;2.53;;
9661;SDS011;24982;52.344;12.990;2023-04-30T10:07:23;5.85;;;2.70;;
9661;SDS011;24982;52.344;12.990;2023-04-30T10:10:27;6.47;;;2.10;;
9661;SDS011;24982;52.344;12.990;2023-04-30T10:13:32;4.40;;;2.30;;
9661;SDS011;24982;52.344;12.990;2023-04-30T10:16:39;4.93;;;2.35;;
9661;SDS011;24982;52.344;12.990;2023-04-30T10:19:47;3.25;;;2.20;;
9661;SDS011;24982;52.344;12.990;2023-04-30T10:22:52;2.17;;;1.85;;
9661;SDS011;24982;52.344;12.990;2023-04-30T10:25:55;4.80;;;2.08;;
9661;SDS011;24982;52.344;12.990;2023-04-30T10:28:57;5.15;;;2.13;;
9661;SDS011;24982;52.344;12.990;2023-04-30T10:32:01;4.93;;;2.63;;
9661;SDS011;24982;52.344;12.990;2023-04-30T10:35:07;6.10;;;2.47;;
9661;SDS011;24982;52.344;12.990;2023-04-30T10:38:19;3.03;;;1.90;;
9661;SDS011;24982;52.344;12.990;2023-04-30T10:41:25;5.63;;;2.50;;
9661;SDS011;24982;52.344;12.990;2023-04-30T10:44:27;4.82;;;2.10;;
9661;SDS011;24982;52.344;12.990;2023-04-30T10:47:31;3.05;;;2.13;;
9661;SDS011;24982;52.344;12.990;2023-04-30T10:50:38;3.58;;;2.10;;
9661;SDS011;24982;52.344;12.990;2023-04-30T10:53:43;3.40;;;2.08;;
9661;SDS011;24982;52.344;12.990;2023-04-30T10:56:46;2.50;;;2.00;;
9661;SDS011;24982;52.344;12.990;2023-04-30T10:59:50;6.03;;;2.40;;
9661;SDS011;24982;52.344;12.990;2023-04-30T11:02:56;5.68;;;2.50;;
9661;SDS011;24982;52.344;12.990;2023-04-30T11:06:10;4.47;;;2.08;;
9661;SDS011;24982;52.344;12.990;2023-04-30T11:09:15;2.65;;;2.10;;
9661;SDS011;24982;52.344;12.990;2023-04-30T11:12:18;4.15;;;2.00;;
9661;SDS011;24982;52.344;12.990;2023-04-30T11:15:32;2.53;;;1.80;;
9661;SDS011;24982;52.344;12.990;2023-04-30T11:18:40;2.45;;;1.90;;
9661;SDS011;24982;52.344;12.990;2023-04-30T11:21:50;3.40;;;1.92;;
9661;SDS011;24982;52.344;12.990;2023-04-30T11:25:21;4.38;;;2.10;;
9661;SDS011;24982;52.344;12.990;2023-04-30T11:28:23;2.67;;;1.63;;
9661;SDS011;24982;52.344;12.990;2023-04-30T11:31:31;4.00;;;2.17;;
9661;SDS011;24982;52.344;12.990;2023-04-30T11:34:33;3.60;;;2.10;;
9661;SDS011;24982;52.344;12.990;2023-04-30T11:37:37;3.38;;;2.00;;
9661;SDS011;24982;52.344;12.990;2023-04-30T11:40:41;4.85;;;2.20;;
9661;SDS011;24982;52.344;12.990;2023-04-30T11:43:44;3.05;;;2.03;;
9661;SDS011;24982;52.344;12.990;2023-04-30T11:46:46;2.85;;;1.90;;
9661;SDS011;24982;52.344;12.990;2023-04-30T11:49:49;4.18;;;2.03;;
9661;SDS011;24982;52.344;12.990;2023-04-30T11:52:52;3.05;;;1.77;;
9661;SDS011;24982;52.344;12.990;2023-04-30T11:56:00;2.05;;;1.80;;
9661;SDS011;24982;52.344;12.990;2023-04-30T11:59:10;3.95;;;2.05;;
9661;SDS011;24982;52.344;12.990;2023-04-30T12:02:13;3.35;;;1.98;;
9661;SDS011;24982;52.344;12.990;2023-04-30T12:05:16;4.00;;;2.30;;
9661;SDS011;24982;52.344;12.990;2023-04-30T12:08:20;3.38;;;2.20;;
9661;SDS011;24982;52.344;12.990;2023-04-30T12:11:23;2.70;;;2.00;;
9661;SDS011;24982;52.344;12.990;2023-04-30T12:14:27;4.50;;;2.22;;
9661;SDS011;24982;52.344;12.990;2023-04-30T12:17:33;3.28;;;2.00;;
9661;SDS011;24982;52.344;12.990;2023-04-30T12:20:35;4.70;;;2.17;;
9661;SDS011;24982;52.344;12.990;2023-04-30T12:23:38;3.55;;;1.90;;
9661;SDS011;24982;52.344;12.990;2023-04-30T12:26:42;3.50;;;1.95;;
9661;SDS011;24982;52.344;12.990;2023-04-30T12:29:45;3.30;;;1.90;;
9661;SDS011;24982;52.344;12.990;2023-04-30T12:32:49;4.97;;;2.20;;
9661;SDS011;24982;52.344;12.990;2023-04-30T12:35:52;3.67;;;2.20;;
9661;SDS011;24982;52.344;12.990;2023-04-30T12:39:00;5.65;;;2.00;;
9661;SDS011;24982;52.344;12.990;2023-04-30T12:42:16;5.13;;;2.22;;
9661;SDS011;24982;52.344;12.990;2023-04-30T12:48:44;2.42;;;2.00;;
9661;SDS011;24982;52.344;12.990;2023-04-30T12:51:46;4.13;;;2.50;;
9661;SDS011;24982;52.344;12.990;2023-04-30T12:54:48;5.75;;;2.72;;
9661;SDS011;24982;52.344;12.990;2023-04-30T12:58:04;3.28;;;2.13;;
9661;SDS011;24982;52.344;12.990;2023-04-30T13:01:09;4.68;;;3.10;;
9661;SDS011;24982;52.344;12.990;2023-04-30T13:04:12;5.20;;;2.28;;
9661;SDS011;24982;52.344;12.990;2023-04-30T13:07:14;2.70;;;1.90;;
9661;SDS011;24982;52.344;12.990;2023-04-30T13:10:16;2.42;;;1.80;;
9661;SDS011;24982;52.344;12.990;2023-04-30T13:13:20;4.85;;;2.25;;
9661;SDS011;24982;52.344;12.990;2023-04-30T13:16:22;3.17;;;2.30;;
9661;SDS011;24982;52.344;12.990;2023-04-30T13:19:24;5.78;;;2.70;;
9661;SDS011;24982;52.344;12.990;2023-04-30T13:22:26;2.80;;;2.10;;
9661;SDS011;24982;52.344;12.990;2023-04-30T13:25:29;10.65;;;7.82;;
9661;SDS011;24982;52.344;12.990;2023-04-30T13:28:33;6.25;;;4.30;;
9661;SDS011;24982;52.344;12.990;2023-04-30T13:31:35;6.53;;;2.30;;
9661;SDS011;24982;52.344;12.990;2023-04-30T13:34:37;5.28;;;2.50;;
9661;SDS011;24982;52.344;12.990;2023-04-30T13:37:40;4.68;;;2.25;;
9661;SDS011;24982;52.344;12.990;2023-04-30T13:40:42;4.25;;;2.25;;
9661;SDS011;24982;52.344;12.990;2023-04-30T13:43:46;4.00;;;2.65;;
9661;SDS011;24982;52.344;12.990;2023-04-30T13:46:48;5.40;;;2.83;;
9661;SDS011;24982;52.344;12.990;2023-04-30T13:49:50;9.48;;;2.60;;
9661;SDS011;24982;52.344;12.990;2023-04-30T13:52:52;4.60;;;2.60;;
9661;SDS011;24982;52.344;12.990;2023-04-30T13:55:55;5.78;;;2.65;;
9661;SDS011;24982;52.344;12.990;2023-04-30T13:58:59;3.35;;;2.53;;
9661;SDS011;24982;52.344;12.990;2023-04-30T14:02:02;4.15;;;2.25;;
9661;SDS011;24982;52.344;12.990;2023-04-30T14:05:04;4.13;;;2.55;;
9661;SDS011;24982;52.344;12.990;2023-04-30T14:08:06;9.35;;;2.95;;
9661;SDS011;24982;52.344;12.990;2023-04-30T14:11:09;5.35;;;2.45;;
9661;SDS011;24982;52.344;12.990;2023-04-30T14:14:12;3.45;;;2.30;;
9661;SDS011;24982;52.344;12.990;2023-04-30T14:17:14;4.28;;;2.40;;
9661;SDS011;24982;52.344;12.990;2023-04-30T14:20:16;6.60;;;2.72;;
9661;SDS011;24982;52.344;12.990;2023-04-30T14:23:19;4.88;;;2.65;;
9661;SDS011;24982;52.344;12.990;2023-04-30T14:26:21;4.07;;;2.70;;
9661;SDS011;24982;52.344;12.990;2023-04-30T14:29:25;5.07;;;2.80;;
9661;SDS011;24982;52.344;12.990;2023-04-30T14:32:27;5.55;;;2.60;;
9661;SDS011;24982;52.344;12.990;2023-04-30T14:35:29;6.28;;;2.63;;
9661;SDS011;24982;52.344;12.990;2023-04-30T14:38:32;7.53;;;3.03;;
9661;SDS011;24982;52.344;12.990;2023-04-30T14:41:34;4.68;;;2.80;;
9661;SDS011;24982;52.344;12.990;2023-04-30T14:44:38;7.22;;;2.10;;
9661;SDS011;24982;52.344;12.990;2023-04-30T14:47:41;5.65;;;2.70;;
9661;SDS011;24982;52.344;12.990;2023-04-30T14:50:45;6.28;;;2.78;;
9661;SDS011;24982;52.344;12.990;2023-04-30T14:53:48;5.45;;;2.97;;
9661;SDS011;24982;52.344;12.990;2023-04-30T14:56:50;5.28;;;2.90;;
9661;SDS011;24982;52.344;12.990;2023-04-30T14:59:54;6.03;;;2.58;;
9661;SDS011;24982;52.344;12.990;2023-04-30T15:02:58;8.23;;;2.88;;
9661;SDS011;24982;52.344;12.990;2023-04-30T15:06:00;5.75;;;2.10;;
9661;SDS011;24982;52.344;12.990;2023-04-30T15:09:03;5.05;;;2.05;;
9661;SDS011;24982;52.344;12.990;2023-04-30T15:12:06;3.05;;;2.15;;
9661;SDS011;24982;52.344;12.990;2023-04-30T15:15:10;17.70;;;3.40;;
9661;SDS011;24982;52.344;12.990;2023-04-30T15:18:12;3.22;;;2.20;;
9661;SDS011;24982;52.344;12.990;2023-04-30T15:21:15;3.40;;;2.17;;
9661;SDS011;24982;52.344;12.990;2023-04-30T15:24:17;6.95;;;2.60;;
9661;SDS011;24982;52.344;12.990;2023-04-30T15:27:20;3.13;;;2.22;;
9661;SDS011;24982;52.344;12.990;2023-04-30T15:30:23;6.53;;;2.40;;
9661;SDS011;24982;52.344;12.990;2023-04-30T15:33:26;6.47;;;2.45;;
9661;SDS011;24982;52.344;12.990;2023-04-30T15:36:30;5.57;;;2.13;;
9661;SDS011;24982;52.344;12.990;2023-04-30T15:39:32;5.68;;;3.00;;
9661;SDS011;24982;52.344;12.990;2023-04-30T15:42:34;4.53;;;2.47;;
9661;SDS011;24982;52.344;12.990;2023-04-30T15:45:39;4.38;;;2.40;;
9661;SDS011;24982;52.344;12.990;2023-04-30T15:48:41;4.78;;;2.60;;
9661;SDS011;24982;52.344;12.990;2023-04-30T15:51:43;7.63;;;3.15;;
9661;SDS011;24982;52.344;12.990;2023-04-30T15:54:45;12.98;;;8.63;;
9661;SDS011;24982;52.344;12.990;2023-04-30T15:57:47;9.02;;;5.35;;
9661;SDS011;24982;52.344;12.990;2023-04-30T16:00:50;15.70;;;5.18;;
9661;SDS011;24982;52.344;12.990;2023-04-30T16:03:53;25.85;;;8.48;;
9661;SDS011;24982;52.344;12.990;2023-04-30T16:06:55;8.27;;;3.75;;
9661;SDS011;24982;52.344;12.990;2023-04-30T16:09:57;7.57;;;3.67;;
9661;SDS011;24982;52.344;12.990;2023-04-30T16:12:59;10.10;;;4.80;;
9661;SDS011;24982;52.344;12.990;2023-04-30T16:16:03;12.68;;;8.02;;
9661;SDS011;24982;52.344;12.990;2023-04-30T16:19:07;10.15;;;5.35;;
9661;SDS011;24982;52.344;12.990;2023-04-30T16:22:11;12.02;;;8.55;;
9661;SDS011;24982;52.344;12.990;2023-04-30T16:25:13;10.25;;;5.60;;
9661;SDS011;24982;52.344;12.990;2023-04-30T16:28:15;5.85;;;3.22;;
9661;SDS011;24982;52.344;12.990;2023-04-30T16:31:18;5.75;;;4.10;;
9661;SDS011;24982;52.344;12.990;2023-04-30T16:34:22;7.28;;;3.38;;
9661;SDS011;24982;52.344;12.990;2023-04-30T16:37:24;4.85;;;3.17;;
9661;SDS011;24982;52.344;12.990;2023-04-30T16:40:26;5.68;;;2.85;;
9661;SDS011;24982;52.344;12.990;2023-04-30T16:43:28;6.28;;;2.80;;
9661;SDS011;24982;52.344;12.990;2023-04-30T16:46:32;3.78;;;2.40;;
9661;SDS011;24982;52.344;12.990;2023-04-30T16:49:34;5.05;;;2.55;;
9661;SDS011;24982;52.344;12.990;2023-04-30T16:52:36;4.60;;;2.30;;
9661;SDS011;24982;52.344;12.990;2023-04-30T16:55:38;5.47;;;2.50;;
9661;SDS011;24982;52.344;12.990;2023-04-30T16:58:40;4.47;;;2.58;;
9661;SDS011;24982;52.344;12.990;2023-04-30T17:01:43;6.72;;;3.55;;
9661;SDS011;24982;52.344;12.990;2023-04-30T17:04:45;6.75;;;3.50;;
9661;SDS011;24982;52.344;12.990;2023-04-30T17:07:47;5.10;;;3.33;;
9661;SDS011;24982;52.344;12.990;2023-04-30T17:10:49;4.90;;;2.80;;
9661;SDS011;24982;52.344;12.990;2023-04-30T17:13:51;8.65;;;3.15;;
9661;SDS011;24982;52.344;12.990;2023-04-30T17:16:55;3.50;;;2.90;;
9661;SDS011;24982;52.344;12.990;2023-04-30T17:19:57;5.75;;;2.78;;
9661;SDS011;24982;52.344;12.990;2023-04-30T17:22:59;4.15;;;2.70;;
9661;SDS011;24982;52.344;12.990;2023-04-30T17:26:02;4.43;;;2.70;;
9661;SDS011;24982;52.344;12.990;2023-04-30T17:29:04;8.07;;;3.53;;
9661;SDS011;24982;52.344;12.990;2023-04-30T17:32:08;4.72;;;2.63;;
9661;SDS011;24982;52.344;12.990;2023-04-30T17:35:10;5.93;;;3.47;;
9661;SDS011;24982;52.344;12.990;2023-04-30T17:38:12;8.55;;;3.03;;
9661;SDS011;24982;52.344;12.990;2023-04-30T17:41:14;5.45;;;2.78;;
9661;SDS011;24982;52.344;12.990;2023-04-30T17:44:18;4.43;;;2.65;;
9661;SDS011;24982;52.344;12.990;2023-04-30T17:47:22;6.30;;;3.40;;
9661;SDS011;24982;52.344;12.990;2023-04-30T17:50:24;7.60;;;5.65;;
9661;SDS011;24982;52.344;12.990;2023-04-30T17:53:26;8.85;;;6.30;;
9661;SDS011;24982;52.344;12.990;2023-04-30T17:56:28;10.27;;;6.85;;
9661;SDS011;24982;52.344;12.990;2023-04-30T17:59:30;18.75;;;14.60;;
9661;SDS011;24982;52.344;12.990;2023-04-30T18:02:33;11.63;;;8.15;;
9661;SDS011;24982;52.344;12.990;2023-04-30T18:05:35;25.20;;;18.33;;
9661;SDS011;24982;52.344;12.990;2023-04-30T18:08:38;36.78;;;24.98;;
9661;SDS011;24982;52.344;12.990;2023-04-30T18:11:40;28.65;;;23.52;;
9661;SDS011;24982;52.344;12.990;2023-04-30T18:14:42;18.73;;;12.73;;
9661;SDS011;24982;52.344;12.990;2023-04-30T18:17:46;8.30;;;4.53;;
9661;SDS011;24982;52.344;12.990;2023-04-30T18:20:48;8.00;;;4.00;;
9661;SDS011;24982;52.344;12.990;2023-04-30T18:23:51;5.13;;;3.53;;
9661;SDS011;24982;52.344;12.990;2023-04-30T18:26:53;7.13;;;3.95;;